sensor_id;sensor_type;location;lat;lon;timestamp;P1;durP1;ratioP1;P2;durP2;ratioP2
12635;SDS011;6383;50.830;7.210;2022-08-20T00:01:10;3.10;;;2.20;;
12635;SDS011;6383;50.830;7.210;2022-08-20T00:03:39;2.78;;;2.05;;
12635;SDS011;6383;50.830;7.210;2022-08-20T00:06:09;2.30;;;2.10;;
12635;SDS011;6383;50.830;7.210;2022-08-20T00:08:43;5.00;;;2.55;;
12635;SDS011;6383;50.830;7.210;2022-08-20T00:11:12;3.13;;;2.40;;
12635;SDS011;6383;50.830;7.210;2022-08-20T00:13:44;4.30;;;2.67;;
12635;SDS011;6383;50.830;7.210;2022-08-20T00:16:17;4.90;;;2.58;;
12635;SDS011;6383;50.830;7.210;2022-08-20T00:18:50;3.55;;;2.90;;
12635;SDS011;6383;50.830;7.210;2022-08-20T00:21:19;3.58;;;2.53;;
12635;SDS011;6383;50.830;7.210;2022-08-20T00:23:52;3.38;;;2.17;;
12635;SDS011;6383;50.830;7.210;2022-08-20T00:26:24;2.60;;;2.40;;
12635;SDS011;6383;50.830;7.210;2022-08-20T00:28:57;2.60;;;2.17;;
12635;SDS011;6383;50.830;7.210;2022-08-20T00:31:26;5.85;;;2.60;;
12635;SDS011;6383;50.830;7.210;2022-08-20T00:34:07;3.38;;;2.53;;
12635;SDS011;6383;50.830;7.210;2022-08-20T00:36:35;5.45;;;2.60;;
12635;SDS011;6383;50.830;7.210;2022-08-20T00:39:03;3.45;;;2.33;;
12635;SDS011;6383;50.830;7.210;2022-08-20T00:41:35;7.00;;;2.42;;
12635;SDS011;6383;50.830;7.210;2022-08-20T00:44:10;3.65;;;2.50;;
12635;SDS011;6383;50.830;7.210;2022-08-20T00:46:44;5.70;;;1.95;;
12635;SDS011;6383;50.830;7.210;2022-08-20T00:49:15;2.08;;;1.95;;
12635;SDS011;6383;50.830;7.210;2022-08-20T00:51:51;5.43;;;2.03;;
12635;SDS011;6383;50.830;7.210;2022-08-20T00:54:25;4.93;;;2.65;;
12635;SDS011;6383;50.830;7.210;2022-08-20T00:56:56;5.10;;;2.40;;
12635;SDS011;6383;50.830;7.210;2022-08-20T00:59:29;3.08;;;2.03;;
12635;SDS011;6383;50.830;7.210;2022-08-20T01:01:58;3.70;;;2.40;;
12635;SDS011;6383;50.830;7.210;2022-08-20T01:04:31;4.10;;;2.38;;
12635;SDS011;6383;50.830;7.210;2022-08-20T01:07:03;4.15;;;2.53;;
12635;SDS011;6383;50.830;7.210;2022-08-20T01:09:36;2.25;;;2.05;;
12635;SDS011;6383;50.830;7.210;2022-08-20T01:12:06;3.78;;;2.60;;
12635;SDS011;6383;50.830;7.210;2022-08-20T01:14:38;5.35;;;2.40;;
12635;SDS011;6383;50.830;7.210;2022-08-20T01:17:13;3.53;;;2.42;;
12635;SDS011;6383;50.830;7.210;2022-08-20T01:19:46;5.30;;;2.50;;
12635;SDS011;6383;50.830;7.210;2022-08-20T01:22:20;3.10;;;2.80;;
12635;SDS011;6383;50.830;7.210;2022-08-20T01:25:14;5.05;;;3.05;;
12635;SDS011;6383;50.830;7.210;2022-08-20T01:27:49;5.32;;;3.30;;
12635;SDS011;6383;50.830;7.210;2022-08-20T01:30:28;6.97;;;3.40;;
12635;SDS011;6383;50.830;7.210;2022-08-20T01:32:58;5.00;;;3.53;;
12635;SDS011;6383;50.830;7.210;2022-08-20T01:35:29;5.03;;;3.50;;
12635;SDS011;6383;50.830;7.210;2022-08-20T01:38:01;6.95;;;3.40;;
12635;SDS011;6383;50.830;7.210;2022-08-20T01:40:34;6.93;;;4.03;;
12635;SDS011;6383;50.830;7.210;2022-08-20T01:43:19;4.43;;;4.03;;
12635;SDS011;6383;50.830;7.210;2022-08-20T01:45:47;4.28;;;3.88;;
12635;SDS011;6383;50.830;7.210;2022-08-20T01:48:20;7.28;;;4.00;;
12635;SDS011;6383;50.830;7.210;2022-08-20T01:50:52;4.00;;;3.70;;
12635;SDS011;6383;50.830;7.210;2022-08-20T01:53:29;5.50;;;4.10;;
12635;SDS011;6383;50.830;7.210;2022-08-20T01:56:00;4.57;;;4.15;;
12635;SDS011;6383;50.830;7.210;2022-08-20T01:58:33;4.70;;;4.30;;
12635;SDS011;6383;50.830;7.210;2022-08-20T02:01:04;6.60;;;4.80;;
12635;SDS011;6383;50.830;7.210;2022-08-20T02:03:33;6.60;;;4.30;;
12635;SDS011;6383;50.830;7.210;2022-08-20T02:06:01;9.52;;;3.70;;
12635;SDS011;6383;50.830;7.210;2022-08-20T02:08:29;4.53;;;4.22;;
12635;SDS011;6383;50.830;7.210;2022-08-20T02:10:59;9.60;;;4.32;;
12635;SDS011;6383;50.830;7.210;2022-08-20T02:13:27;4.47;;;4.05;;
12635;SDS011;6383;50.830;7.210;2022-08-20T02:15:56;5.45;;;4.30;;
12635;SDS011;6383;50.830;7.210;2022-08-20T02:18:25;3.88;;;3.55;;
12635;SDS011;6383;50.830;7.210;2022-08-20T02:20:53;5.60;;;4.45;;
12635;SDS011;6383;50.830;7.210;2022-08-20T02:23:21;4.05;;;3.75;;
12635;SDS011;6383;50.830;7.210;2022-08-20T02:25:49;6.63;;;3.95;;
12635;SDS011;6383;50.830;7.210;2022-08-20T02:28:17;3.97;;;3.58;;
12635;SDS011;6383;50.830;7.210;2022-08-20T02:30:48;4.65;;;3.35;;
12635;SDS011;6383;50.830;7.210;2022-08-20T02:33:20;5.82;;;3.90;;
12635;SDS011;6383;50.830;7.210;2022-08-20T02:35:51;5.07;;;3.97;;
12635;SDS011;6383;50.830;7.210;2022-08-20T02:38:21;6.32;;;3.85;;
12635;SDS011;6383;50.830;7.210;2022-08-20T02:40:49;4.07;;;3.67;;
12635;SDS011;6383;50.830;7.210;2022-08-20T02:43:18;4.32;;;3.55;;
12635;SDS011;6383;50.830;7.210;2022-08-20T02:45:47;8.32;;;3.67;;
12635;SDS011;6383;50.830;7.210;2022-08-20T02:48:17;4.63;;;3.72;;
12635;SDS011;6383;50.830;7.210;2022-08-20T02:50:51;5.43;;;3.78;;
12635;SDS011;6383;50.830;7.210;2022-08-20T02:53:22;5.57;;;3.88;;
12635;SDS011;6383;50.830;7.210;2022-08-20T02:55:50;5.03;;;3.58;;
12635;SDS011;6383;50.830;7.210;2022-08-20T02:58:20;6.53;;;3.75;;
12635;SDS011;6383;50.830;7.210;2022-08-20T03:00:49;5.22;;;4.15;;
12635;SDS011;6383;50.830;7.210;2022-08-20T03:03:18;4.75;;;3.80;;
12635;SDS011;6383;50.830;7.210;2022-08-20T03:05:48;4.35;;;3.90;;
12635;SDS011;6383;50.830;7.210;2022-08-20T03:08:19;4.53;;;4.00;;
12635;SDS011;6383;50.830;7.210;2022-08-20T03:10:48;4.40;;;3.78;;
12635;SDS011;6383;50.830;7.210;2022-08-20T03:13:18;5.28;;;3.75;;
12635;SDS011;6383;50.830;7.210;2022-08-20T03:15:49;5.68;;;3.58;;
12635;SDS011;6383;50.830;7.210;2022-08-20T03:18:18;7.72;;;4.32;;
12635;SDS011;6383;50.830;7.210;2022-08-20T03:20:47;5.07;;;4.22;;
12635;SDS011;6383;50.830;7.210;2022-08-20T03:23:16;6.88;;;4.10;;
12635;SDS011;6383;50.830;7.210;2022-08-20T03:25:47;6.35;;;3.88;;
12635;SDS011;6383;50.830;7.210;2022-08-20T03:28:15;3.90;;;3.60;;
12635;SDS011;6383;50.830;7.210;2022-08-20T03:30:44;5.40;;;3.78;;
12635;SDS011;6383;50.830;7.210;2022-08-20T03:33:13;4.50;;;3.25;;
12635;SDS011;6383;50.830;7.210;2022-08-20T03:35:41;6.43;;;3.40;;
12635;SDS011;6383;50.830;7.210;2022-08-20T03:38:08;3.45;;;3.15;;
12635;SDS011;6383;50.830;7.210;2022-08-20T03:40:37;3.92;;;3.33;;
12635;SDS011;6383;50.830;7.210;2022-08-20T03:43:07;5.32;;;3.42;;
12635;SDS011;6383;50.830;7.210;2022-08-20T03:45:37;4.70;;;3.13;;
12635;SDS011;6383;50.830;7.210;2022-08-20T03:48:08;3.15;;;2.95;;
12635;SDS011;6383;50.830;7.210;2022-08-20T03:50:38;3.80;;;3.47;;
12635;SDS011;6383;50.830;7.210;2022-08-20T03:53:08;6.13;;;3.47;;
12635;SDS011;6383;50.830;7.210;2022-08-20T03:55:38;3.75;;;3.45;;
12635;SDS011;6383;50.830;7.210;2022-08-20T03:58:09;3.20;;;2.92;;
12635;SDS011;6383;50.830;7.210;2022-08-20T04:00:39;3.42;;;3.17;;
12635;SDS011;6383;50.830;7.210;2022-08-20T04:03:10;3.70;;;3.45;;
12635;SDS011;6383;50.830;7.210;2022-08-20T04:05:38;3.83;;;3.25;;
12635;SDS011;6383;50.830;7.210;2022-08-20T04:08:07;3.80;;;2.90;;
12635;SDS011;6383;50.830;7.210;2022-08-20T04:10:37;3.85;;;3.55;;
12635;SDS011;6383;50.830;7.210;2022-08-20T04:13:06;4.07;;;3.63;;
12635;SDS011;6383;50.830;7.210;2022-08-20T04:15:36;4.90;;;3.65;;
12635;SDS011;6383;50.830;7.210;2022-08-20T04:18:04;3.65;;;3.30;;
12635;SDS011;6383;50.830;7.210;2022-08-20T04:20:34;4.90;;;3.88;;
12635;SDS011;6383;50.830;7.210;2022-08-20T04:23:04;3.85;;;3.55;;
12635;SDS011;6383;50.830;7.210;2022-08-20T04:25:33;5.45;;;3.58;;
12635;SDS011;6383;50.830;7.210;2022-08-20T04:28:07;4.25;;;3.85;;
12635;SDS011;6383;50.830;7.210;2022-08-20T04:30:38;3.90;;;3.60;;
12635;SDS011;6383;50.830;7.210;2022-08-20T04:33:08;4.03;;;3.72;;
12635;SDS011;6383;50.830;7.210;2022-08-20T04:35:36;3.33;;;3.03;;
12635;SDS011;6383;50.830;7.210;2022-08-20T04:38:06;3.28;;;2.92;;
12635;SDS011;6383;50.830;7.210;2022-08-20T04:40:36;3.60;;;2.63;;
12635;SDS011;6383;50.830;7.210;2022-08-20T04:43:24;5.50;;;3.80;;
12635;SDS011;6383;50.830;7.210;2022-08-20T04:45:56;3.10;;;2.90;;
12635;SDS011;6383;50.830;7.210;2022-08-20T04:48:26;3.72;;;3.00;;
12635;SDS011;6383;50.830;7.210;2022-08-20T04:50:55;4.25;;;3.15;;
12635;SDS011;6383;50.830;7.210;2022-08-20T04:53:25;3.80;;;3.38;;
12635;SDS011;6383;50.830;7.210;2022-08-20T04:55:55;6.55;;;3.45;;
12635;SDS011;6383;50.830;7.210;2022-08-20T04:58:26;7.07;;;3.35;;
12635;SDS011;6383;50.830;7.210;2022-08-20T05:00:58;3.42;;;3.15;;
12635;SDS011;6383;50.830;7.210;2022-08-20T05:03:27;6.50;;;3.95;;
12635;SDS011;6383;50.830;7.210;2022-08-20T05:05:55;3.92;;;3.55;;
12635;SDS011;6383;50.830;7.210;2022-08-20T05:08:24;4.60;;;4.20;;
12635;SDS011;6383;50.830;7.210;2022-08-20T05:10:52;5.18;;;4.70;;
12635;SDS011;6383;50.830;7.210;2022-08-20T05:13:20;5.97;;;5.28;;
12635;SDS011;6383;50.830;7.210;2022-08-20T05:15:49;5.13;;;4.63;;
12635;SDS011;6383;50.830;7.210;2022-08-20T05:18:20;7.90;;;5.78;;
12635;SDS011;6383;50.830;7.210;2022-08-20T05:20:50;5.43;;;4.93;;
12635;SDS011;6383;50.830;7.210;2022-08-20T05:23:19;5.65;;;4.90;;
12635;SDS011;6383;50.830;7.210;2022-08-20T05:25:49;5.53;;;4.97;;
12635;SDS011;6383;50.830;7.210;2022-08-20T05:28:19;7.63;;;5.93;;
12635;SDS011;6383;50.830;7.210;2022-08-20T05:30:49;7.90;;;5.78;;
12635;SDS011;6383;50.830;7.210;2022-08-20T05:33:20;10.43;;;6.45;;
12635;SDS011;6383;50.830;7.210;2022-08-20T05:35:49;6.72;;;5.70;;
12635;SDS011;6383;50.830;7.210;2022-08-20T05:38:20;7.05;;;6.40;;
12635;SDS011;6383;50.830;7.210;2022-08-20T05:40:51;6.38;;;5.80;;
12635;SDS011;6383;50.830;7.210;2022-08-20T05:43:19;5.78;;;5.28;;
12635;SDS011;6383;50.830;7.210;2022-08-20T05:45:47;6.10;;;5.53;;
12635;SDS011;6383;50.830;7.210;2022-08-20T05:48:22;7.97;;;4.97;;
12635;SDS011;6383;50.830;7.210;2022-08-20T05:50:51;6.97;;;5.80;;
12635;SDS011;6383;50.830;7.210;2022-08-20T05:53:22;5.78;;;5.18;;
12635;SDS011;6383;50.830;7.210;2022-08-20T05:55:51;9.20;;;4.78;;
12635;SDS011;6383;50.830;7.210;2022-08-20T05:58:21;5.72;;;5.22;;
12635;SDS011;6383;50.830;7.210;2022-08-20T06:00:52;6.13;;;5.63;;
12635;SDS011;6383;50.830;7.210;2022-08-20T06:03:22;5.60;;;5.10;;
12635;SDS011;6383;50.830;7.210;2022-08-20T06:06:09;6.70;;;5.75;;
12635;SDS011;6383;50.830;7.210;2022-08-20T06:08:39;6.60;;;5.70;;
12635;SDS011;6383;50.830;7.210;2022-08-20T06:11:07;5.55;;;5.13;;
12635;SDS011;6383;50.830;7.210;2022-08-20T06:13:35;5.30;;;4.80;;
12635;SDS011;6383;50.830;7.210;2022-08-20T06:16:03;5.35;;;4.90;;
12635;SDS011;6383;50.830;7.210;2022-08-20T06:18:32;5.80;;;5.25;;
12635;SDS011;6383;50.830;7.210;2022-08-20T06:21:01;7.97;;;5.75;;
12635;SDS011;6383;50.830;7.210;2022-08-20T06:23:29;9.10;;;8.20;;
12635;SDS011;6383;50.830;7.210;2022-08-20T06:25:57;10.02;;;9.20;;
12635;SDS011;6383;50.830;7.210;2022-08-20T06:28:25;11.85;;;10.00;;
12635;SDS011;6383;50.830;7.210;2022-08-20T06:30:53;14.73;;;13.25;;
12635;SDS011;6383;50.830;7.210;2022-08-20T06:33:21;17.80;;;15.95;;
12635;SDS011;6383;50.830;7.210;2022-08-20T06:35:50;19.05;;;16.90;;
12635;SDS011;6383;50.830;7.210;2022-08-20T06:38:19;18.25;;;15.63;;
12635;SDS011;6383;50.830;7.210;2022-08-20T06:40:47;19.50;;;17.52;;
12635;SDS011;6383;50.830;7.210;2022-08-20T06:43:15;20.10;;;18.05;;
12635;SDS011;6383;50.830;7.210;2022-08-20T06:45:43;20.80;;;17.95;;
12635;SDS011;6383;50.830;7.210;2022-08-20T06:48:12;21.05;;;18.85;;
12635;SDS011;6383;50.830;7.210;2022-08-20T06:50:42;20.70;;;18.73;;
12635;SDS011;6383;50.830;7.210;2022-08-20T06:53:15;23.15;;;20.92;;
12635;SDS011;6383;50.830;7.210;2022-08-20T06:55:46;22.00;;;19.95;;
12635;SDS011;6383;50.830;7.210;2022-08-20T06:58:17;22.88;;;20.17;;
12635;SDS011;6383;50.830;7.210;2022-08-20T07:00:47;22.83;;;20.60;;
12635;SDS011;6383;50.830;7.210;2022-08-20T07:03:17;20.50;;;18.50;;
12635;SDS011;6383;50.830;7.210;2022-08-20T07:05:45;20.67;;;18.67;;
12635;SDS011;6383;50.830;7.210;2022-08-20T07:08:15;20.30;;;18.48;;
12635;SDS011;6383;50.830;7.210;2022-08-20T07:10:47;19.15;;;17.33;;
12635;SDS011;6383;50.830;7.210;2022-08-20T07:13:15;17.42;;;15.73;;
12635;SDS011;6383;50.830;7.210;2022-08-20T07:15:43;17.67;;;15.90;;
12635;SDS011;6383;50.830;7.210;2022-08-20T07:18:11;17.52;;;15.85;;
12635;SDS011;6383;50.830;7.210;2022-08-20T07:20:41;16.48;;;14.93;;
12635;SDS011;6383;50.830;7.210;2022-08-20T07:23:09;17.27;;;15.60;;
12635;SDS011;6383;50.830;7.210;2022-08-20T07:25:39;15.07;;;13.77;;
12635;SDS011;6383;50.830;7.210;2022-08-20T07:28:08;15.70;;;14.07;;
12635;SDS011;6383;50.830;7.210;2022-08-20T07:30:39;14.98;;;13.43;;
12635;SDS011;6383;50.830;7.210;2022-08-20T07:33:25;16.00;;;14.50;;
12635;SDS011;6383;50.830;7.210;2022-08-20T07:35:53;15.45;;;13.95;;
12635;SDS011;6383;50.830;7.210;2022-08-20T07:38:22;14.80;;;13.30;;
12635;SDS011;6383;50.830;7.210;2022-08-20T07:40:53;15.98;;;14.30;;
12635;SDS011;6383;50.830;7.210;2022-08-20T07:43:23;14.30;;;13.05;;
12635;SDS011;6383;50.830;7.210;2022-08-20T07:45:53;16.15;;;14.68;;
12635;SDS011;6383;50.830;7.210;2022-08-20T07:48:23;15.82;;;14.45;;
12635;SDS011;6383;50.830;7.210;2022-08-20T07:50:52;16.48;;;14.25;;
12635;SDS011;6383;50.830;7.210;2022-08-20T07:53:20;14.57;;;13.15;;
12635;SDS011;6383;50.830;7.210;2022-08-20T07:55:49;16.65;;;14.77;;
12635;SDS011;6383;50.830;7.210;2022-08-20T07:58:19;14.90;;;13.48;;
12635;SDS011;6383;50.830;7.210;2022-08-20T08:00:49;16.85;;;14.05;;
12635;SDS011;6383;50.830;7.210;2022-08-20T08:03:17;20.88;;;16.73;;
12635;SDS011;6383;50.830;7.210;2022-08-20T08:05:46;17.40;;;14.73;;
12635;SDS011;6383;50.830;7.210;2022-08-20T08:08:18;15.75;;;14.13;;
12635;SDS011;6383;50.830;7.210;2022-08-20T08:10:50;16.15;;;14.50;;
12635;SDS011;6383;50.830;7.210;2022-08-20T08:13:23;17.77;;;15.93;;
12635;SDS011;6383;50.830;7.210;2022-08-20T08:15:54;16.48;;;14.32;;
12635;SDS011;6383;50.830;7.210;2022-08-20T08:18:26;16.95;;;15.40;;
12635;SDS011;6383;50.830;7.210;2022-08-20T08:21:01;15.93;;;14.52;;
12635;SDS011;6383;50.830;7.210;2022-08-20T08:23:31;19.25;;;16.45;;
12635;SDS011;6383;50.830;7.210;2022-08-20T08:26:01;17.10;;;15.40;;
12635;SDS011;6383;50.830;7.210;2022-08-20T08:28:31;18.70;;;16.63;;
12635;SDS011;6383;50.830;7.210;2022-08-20T08:30:58;19.85;;;16.20;;
12635;SDS011;6383;50.830;7.210;2022-08-20T08:33:27;18.83;;;16.23;;
12635;SDS011;6383;50.830;7.210;2022-08-20T08:35:58;22.50;;;16.40;;
12635;SDS011;6383;50.830;7.210;2022-08-20T08:38:28;18.48;;;15.65;;
12635;SDS011;6383;50.830;7.210;2022-08-20T08:41:00;17.63;;;15.70;;
12635;SDS011;6383;50.830;7.210;2022-08-20T08:43:35;17.63;;;15.73;;
12635;SDS011;6383;50.830;7.210;2022-08-20T08:46:05;18.08;;;14.35;;
12635;SDS011;6383;50.830;7.210;2022-08-20T08:48:36;17.20;;;15.43;;
12635;SDS011;6383;50.830;7.210;2022-08-20T08:51:09;16.40;;;14.00;;
12635;SDS011;6383;50.830;7.210;2022-08-20T08:53:40;23.40;;;17.30;;
12635;SDS011;6383;50.830;7.210;2022-08-20T08:56:12;14.95;;;13.55;;
12635;SDS011;6383;50.830;7.210;2022-08-20T08:58:43;14.52;;;13.10;;
12635;SDS011;6383;50.830;7.210;2022-08-20T09:01:13;14.25;;;12.95;;
12635;SDS011;6383;50.830;7.210;2022-08-20T09:03:47;15.80;;;14.00;;
12635;SDS011;6383;50.830;7.210;2022-08-20T09:06:17;15.57;;;13.63;;
12635;SDS011;6383;50.830;7.210;2022-08-20T09:08:50;13.07;;;11.75;;
12635;SDS011;6383;50.830;7.210;2022-08-20T09:11:21;14.05;;;12.07;;
12635;SDS011;6383;50.830;7.210;2022-08-20T09:13:52;11.52;;;10.40;;
12635;SDS011;6383;50.830;7.210;2022-08-20T09:16:21;12.68;;;10.73;;
12635;SDS011;6383;50.830;7.210;2022-08-20T09:18:51;12.88;;;11.30;;
12635;SDS011;6383;50.830;7.210;2022-08-20T09:21:19;13.13;;;11.85;;
12635;SDS011;6383;50.830;7.210;2022-08-20T09:23:47;16.50;;;13.63;;
12635;SDS011;6383;50.830;7.210;2022-08-20T09:26:15;14.13;;;12.65;;
12635;SDS011;6383;50.830;7.210;2022-08-20T09:28:44;13.50;;;11.40;;
12635;SDS011;6383;50.830;7.210;2022-08-20T09:31:13;13.88;;;12.25;;
12635;SDS011;6383;50.830;7.210;2022-08-20T09:33:42;12.07;;;10.95;;
12635;SDS011;6383;50.830;7.210;2022-08-20T09:36:11;13.98;;;12.55;;
12635;SDS011;6383;50.830;7.210;2022-08-20T09:38:39;14.48;;;12.80;;
12635;SDS011;6383;50.830;7.210;2022-08-20T09:41:08;15.65;;;14.05;;
12635;SDS011;6383;50.830;7.210;2022-08-20T09:43:36;13.85;;;12.55;;
12635;SDS011;6383;50.830;7.210;2022-08-20T09:46:04;14.13;;;12.52;;
12635;SDS011;6383;50.830;7.210;2022-08-20T09:48:34;17.65;;;12.73;;
12635;SDS011;6383;50.830;7.210;2022-08-20T09:51:03;14.05;;;11.90;;
12635;SDS011;6383;50.830;7.210;2022-08-20T09:53:32;12.07;;;10.88;;
12635;SDS011;6383;50.830;7.210;2022-08-20T09:56:00;15.35;;;10.95;;
12635;SDS011;6383;50.830;7.210;2022-08-20T09:58:33;12.68;;;11.40;;
12635;SDS011;6383;50.830;7.210;2022-08-20T10:01:06;12.38;;;10.55;;
12635;SDS011;6383;50.830;7.210;2022-08-20T10:03:37;13.35;;;11.88;;
12635;SDS011;6383;50.830;7.210;2022-08-20T10:06:06;12.68;;;11.45;;
12635;SDS011;6383;50.830;7.210;2022-08-20T10:08:36;13.52;;;11.68;;
12635;SDS011;6383;50.830;7.210;2022-08-20T10:11:04;12.15;;;10.45;;
12635;SDS011;6383;50.830;7.210;2022-08-20T10:13:32;10.48;;;9.48;;
12635;SDS011;6383;50.830;7.210;2022-08-20T10:16:00;16.25;;;10.98;;
12635;SDS011;6383;50.830;7.210;2022-08-20T10:18:28;11.50;;;8.20;;
12635;SDS011;6383;50.830;7.210;2022-08-20T10:20:58;9.77;;;8.77;;
12635;SDS011;6383;50.830;7.210;2022-08-20T10:23:27;12.45;;;7.72;;
12635;SDS011;6383;50.830;7.210;2022-08-20T10:25:55;9.80;;;6.90;;
12635;SDS011;6383;50.830;7.210;2022-08-20T10:28:23;7.55;;;6.53;;
12635;SDS011;6383;50.830;7.210;2022-08-20T10:30:54;17.35;;;7.35;;
12635;SDS011;6383;50.830;7.210;2022-08-20T10:33:30;13.50;;;7.43;;
12635;SDS011;6383;50.830;7.210;2022-08-20T10:36:06;10.68;;;6.20;;
12635;SDS011;6383;50.830;7.210;2022-08-20T10:38:35;13.10;;;7.22;;
12635;SDS011;6383;50.830;7.210;2022-08-20T10:41:03;10.90;;;7.05;;
12635;SDS011;6383;50.830;7.210;2022-08-20T10:43:31;11.77;;;7.55;;
12635;SDS011;6383;50.830;7.210;2022-08-20T10:46:00;10.43;;;7.32;;
12635;SDS011;6383;50.830;7.210;2022-08-20T10:48:29;11.85;;;8.20;;
12635;SDS011;6383;50.830;7.210;2022-08-20T10:50:57;12.80;;;6.47;;
12635;SDS011;6383;50.830;7.210;2022-08-20T10:53:26;11.32;;;8.05;;
12635;SDS011;6383;50.830;7.210;2022-08-20T10:55:55;12.65;;;8.00;;
12635;SDS011;6383;50.830;7.210;2022-08-20T10:58:25;10.55;;;6.32;;
12635;SDS011;6383;50.830;7.210;2022-08-20T11:00:53;12.48;;;7.38;;
12635;SDS011;6383;50.830;7.210;2022-08-20T11:03:21;11.23;;;7.07;;
12635;SDS011;6383;50.830;7.210;2022-08-20T11:05:49;15.10;;;7.53;;
12635;SDS011;6383;50.830;7.210;2022-08-20T11:08:17;13.50;;;7.90;;
12635;SDS011;6383;50.830;7.210;2022-08-20T11:10:46;10.65;;;8.15;;
12635;SDS011;6383;50.830;7.210;2022-08-20T11:13:15;8.85;;;7.38;;
12635;SDS011;6383;50.830;7.210;2022-08-20T11:15:43;14.85;;;8.45;;
12635;SDS011;6383;50.830;7.210;2022-08-20T11:18:11;17.10;;;7.30;;
12635;SDS011;6383;50.830;7.210;2022-08-20T11:20:39;10.13;;;7.07;;
12635;SDS011;6383;50.830;7.210;2022-08-20T11:23:08;12.05;;;7.30;;
12635;SDS011;6383;50.830;7.210;2022-08-20T11:25:36;10.52;;;7.65;;
12635;SDS011;6383;50.830;7.210;2022-08-20T11:28:06;12.88;;;8.80;;
12635;SDS011;6383;50.830;7.210;2022-08-20T11:30:35;10.93;;;6.90;;
12635;SDS011;6383;50.830;7.210;2022-08-20T11:33:07;11.55;;;6.57;;
12635;SDS011;6383;50.830;7.210;2022-08-20T11:35:35;10.45;;;6.25;;
12635;SDS011;6383;50.830;7.210;2022-08-20T11:38:04;8.98;;;4.70;;
12635;SDS011;6383;50.830;7.210;2022-08-20T11:40:42;7.10;;;5.20;;
12635;SDS011;6383;50.830;7.210;2022-08-20T11:43:19;9.43;;;4.78;;
12635;SDS011;6383;50.830;7.210;2022-08-20T11:45:51;8.02;;;5.30;;
12635;SDS011;6383;50.830;7.210;2022-08-20T11:48:26;8.00;;;5.15;;
12635;SDS011;6383;50.830;7.210;2022-08-20T11:50:56;6.15;;;4.95;;
12635;SDS011;6383;50.830;7.210;2022-08-20T11:53:26;6.85;;;4.60;;
12635;SDS011;6383;50.830;7.210;2022-08-20T11:55:58;5.88;;;4.88;;
12635;SDS011;6383;50.830;7.210;2022-08-20T11:58:28;8.05;;;5.55;;
12635;SDS011;6383;50.830;7.210;2022-08-20T12:00:56;9.15;;;5.53;;
12635;SDS011;6383;50.830;7.210;2022-08-20T12:03:28;6.85;;;4.90;;
12635;SDS011;6383;50.830;7.210;2022-08-20T12:05:56;7.28;;;4.90;;
12635;SDS011;6383;50.830;7.210;2022-08-20T12:08:25;6.35;;;5.25;;
12635;SDS011;6383;50.830;7.210;2022-08-20T12:10:55;7.30;;;5.00;;
12635;SDS011;6383;50.830;7.210;2022-08-20T12:13:26;6.57;;;5.20;;
12635;SDS011;6383;50.830;7.210;2022-08-20T12:15:57;10.70;;;6.38;;
12635;SDS011;6383;50.830;7.210;2022-08-20T12:18:26;10.50;;;5.68;;
12635;SDS011;6383;50.830;7.210;2022-08-20T12:20:56;12.48;;;6.50;;
12635;SDS011;6383;50.830;7.210;2022-08-20T12:23:24;8.32;;;5.50;;
12635;SDS011;6383;50.830;7.210;2022-08-20T12:25:52;7.20;;;5.40;;
12635;SDS011;6383;50.830;7.210;2022-08-20T12:28:21;6.80;;;4.85;;
12635;SDS011;6383;50.830;7.210;2022-08-20T12:30:50;9.88;;;5.80;;
12635;SDS011;6383;50.830;7.210;2022-08-20T12:33:18;6.97;;;5.65;;
12635;SDS011;6383;50.830;7.210;2022-08-20T12:35:47;13.40;;;6.63;;
12635;SDS011;6383;50.830;7.210;2022-08-20T12:38:15;11.52;;;5.97;;
12635;SDS011;6383;50.830;7.210;2022-08-20T12:40:43;14.57;;;6.25;;
12635;SDS011;6383;50.830;7.210;2022-08-20T12:43:11;9.98;;;5.63;;
12635;SDS011;6383;50.830;7.210;2022-08-20T12:45:39;13.30;;;7.25;;
12635;SDS011;6383;50.830;7.210;2022-08-20T12:48:10;6.78;;;5.55;;
12635;SDS011;6383;50.830;7.210;2022-08-20T12:50:40;7.78;;;5.03;;
12635;SDS011;6383;50.830;7.210;2022-08-20T12:53:10;9.32;;;5.13;;
12635;SDS011;6383;50.830;7.210;2022-08-20T12:55:38;7.25;;;4.85;;
12635;SDS011;6383;50.830;7.210;2022-08-20T12:58:07;7.30;;;4.78;;
12635;SDS011;6383;50.830;7.210;2022-08-20T13:00:36;10.82;;;5.85;;
12635;SDS011;6383;50.830;7.210;2022-08-20T13:03:08;8.45;;;6.20;;
12635;SDS011;6383;50.830;7.210;2022-08-20T13:05:38;7.07;;;5.65;;
12635;SDS011;6383;50.830;7.210;2022-08-20T13:08:06;10.35;;;5.32;;
12635;SDS011;6383;50.830;7.210;2022-08-20T13:10:37;9.27;;;5.30;;
12635;SDS011;6383;50.830;7.210;2022-08-20T13:13:09;8.70;;;5.53;;
12635;SDS011;6383;50.830;7.210;2022-08-20T13:15:37;10.82;;;6.22;;
12635;SDS011;6383;50.830;7.210;2022-08-20T13:18:05;9.65;;;5.63;;
12635;SDS011;6383;50.830;7.210;2022-08-20T13:20:35;6.60;;;5.85;;
12635;SDS011;6383;50.830;7.210;2022-08-20T13:23:04;9.35;;;5.68;;
12635;SDS011;6383;50.830;7.210;2022-08-20T13:25:32;6.18;;;5.57;;
12635;SDS011;6383;50.830;7.210;2022-08-20T13:28:02;12.20;;;6.85;;
12635;SDS011;6383;50.830;7.210;2022-08-20T13:30:30;11.43;;;6.00;;
12635;SDS011;6383;50.830;7.210;2022-08-20T13:33:00;9.65;;;6.47;;
12635;SDS011;6383;50.830;7.210;2022-08-20T13:35:28;9.65;;;6.80;;
12635;SDS011;6383;50.830;7.210;2022-08-20T13:37:57;6.80;;;5.68;;
12635;SDS011;6383;50.830;7.210;2022-08-20T13:40:26;8.63;;;5.40;;
12635;SDS011;6383;50.830;7.210;2022-08-20T13:42:54;7.80;;;5.40;;
12635;SDS011;6383;50.830;7.210;2022-08-20T13:45:22;5.95;;;5.38;;
12635;SDS011;6383;50.830;7.210;2022-08-20T13:47:51;8.18;;;5.88;;
12635;SDS011;6383;50.830;7.210;2022-08-20T13:50:21;12.40;;;5.90;;
12635;SDS011;6383;50.830;7.210;2022-08-20T13:52:51;10.95;;;5.95;;
12635;SDS011;6383;50.830;7.210;2022-08-20T13:55:21;8.52;;;6.47;;
12635;SDS011;6383;50.830;7.210;2022-08-20T13:57:52;10.50;;;6.00;;
12635;SDS011;6383;50.830;7.210;2022-08-20T14:00:21;10.32;;;6.25;;
12635;SDS011;6383;50.830;7.210;2022-08-20T14:02:50;14.82;;;6.05;;
12635;SDS011;6383;50.830;7.210;2022-08-20T14:05:18;12.85;;;6.63;;
12635;SDS011;6383;50.830;7.210;2022-08-20T14:07:47;9.48;;;6.25;;
12635;SDS011;6383;50.830;7.210;2022-08-20T14:10:18;10.93;;;6.25;;
12635;SDS011;6383;50.830;7.210;2022-08-20T14:12:51;9.55;;;5.95;;
12635;SDS011;6383;50.830;7.210;2022-08-20T14:15:20;11.02;;;5.93;;
12635;SDS011;6383;50.830;7.210;2022-08-20T14:17:48;11.77;;;5.65;;
12635;SDS011;6383;50.830;7.210;2022-08-20T14:20:20;14.32;;;6.20;;
12635;SDS011;6383;50.830;7.210;2022-08-20T14:22:50;13.73;;;6.25;;
12635;SDS011;6383;50.830;7.210;2022-08-20T14:25:19;13.07;;;6.35;;
12635;SDS011;6383;50.830;7.210;2022-08-20T14:27:48;12.65;;;6.78;;
12635;SDS011;6383;50.830;7.210;2022-08-20T14:30:20;9.27;;;4.35;;
12635;SDS011;6383;50.830;7.210;2022-08-20T14:32:50;7.78;;;4.75;;
12635;SDS011;6383;50.830;7.210;2022-08-20T14:35:18;9.80;;;5.32;;
12635;SDS011;6383;50.830;7.210;2022-08-20T14:37:47;10.38;;;5.43;;
12635;SDS011;6383;50.830;7.210;2022-08-20T14:40:19;8.15;;;4.80;;
12635;SDS011;6383;50.830;7.210;2022-08-20T14:42:49;12.80;;;5.45;;
12635;SDS011;6383;50.830;7.210;2022-08-20T14:45:19;9.98;;;4.78;;
12635;SDS011;6383;50.830;7.210;2022-08-20T14:47:50;21.58;;;5.57;;
12635;SDS011;6383;50.830;7.210;2022-08-20T14:50:20;8.85;;;4.70;;
12635;SDS011;6383;50.830;7.210;2022-08-20T14:52:49;15.43;;;5.55;;
12635;SDS011;6383;50.830;7.210;2022-08-20T14:55:18;9.20;;;3.80;;
12635;SDS011;6383;50.830;7.210;2022-08-20T14:57:48;11.40;;;4.13;;
12635;SDS011;6383;50.830;7.210;2022-08-20T15:00:18;8.52;;;3.72;;
12635;SDS011;6383;50.830;7.210;2022-08-20T15:02:49;9.02;;;3.60;;
12635;SDS011;6383;50.830;7.210;2022-08-20T15:05:17;10.75;;;4.38;;
12635;SDS011;6383;50.830;7.210;2022-08-20T15:07:45;9.38;;;3.67;;
12635;SDS011;6383;50.830;7.210;2022-08-20T15:10:18;12.93;;;3.78;;